Ana Sayfa
METAR-TAF:

METAR-TAF

Havaalanları :

Kahire Uluslararası Havalimanı

Kahire, Mısır

Enlem: 30-08N, Boylam: 031-24E, yükseklik: 64 m

Güncel hava durumu gözlemi

Rapor saat 13:30 UTC de 16 dakika önce yapıldı.
Rüzgar kuzeybatıdan 11 kt
Sıcaklık 36°C
Nem 29%
Basınç 1008 hPa
Görüş mesafesi 10 km veya daha fazla
1500 m altında bulut yok ve kümülonimbus yok

METAR: HECA 161330Z 31011KT CAVOK 36/15 Q1008 NOSIG

Saat: 15:46 (13:46 UTC)

Tahmin

Rapor saat 11:00 UTC de 2 saat ve 46 dakika önce yapıldı.
Ayın 16'si saat 12 UTC'den ayın 17'si saat 18 UTC'ye kadar geçerli Tahmin
Rüzgar kuzeydan 8 kt
Görüş mesafesi 10 km veya daha fazla
1500 m altında bulut yok ve kümülonimbus yok

TAF: HECA 161100Z 1612/1718 36008KT CAVOK

4.000'den fazla havaalanı için hava durumu gözlemleri ve tahminleri (METAR ve TAF raporları).

Kullanılabilir istasyonlar harita üzerinde sarı ve kırmızı noktalarla gösterilir.

İstasyonun adını görmek için fareyi noktanın üzerinde gezdirin.

Sonrasında hava gözlem ve tahminlerini görmek için tıklayın.

Haritayı değiştirmek için: yaklaştırmak için siyah artı işaretli yeşil düğmeye ve uzaklaştırmak için de eksi işaretli düğmeye hızla tıklayın; bitişik haritalar için yeşil okları kullanın.


METAR-TAF: